Princeton, Florida
Current Conditions -  °F | °C
As of 3:58 AM on Friday 24 Oct 2014 (Local Time) from KHST Reporting Station
Light Rain Light Rain  
Wind Chill: 75°   Ceiling: 2000
Heat Index: 75°   Visibility: 10mi
Dew Point: 72°   Wind: 16mph
Humidity: 89%   Direction: 30°NNE
Pressure: 29.82"   Gusts: NA
Location:  25.5445°N, 80.4236°W
Report Text: KHST 240758Z AUTO 03014KT 10SM -RA FEW008 BKN020 24/22 A2982 RMK AO2 RAE0738B0754DZB0738E0750 SLP101 P0023
Loading
Personal Weather Stations






























Interactive Weather Map
Tropical Storm Tracking
New forecast layout! Learn more

10-Day Weather Forecast

Advertisements
Track Severe Weather on mobile